Time;durP1;ratioP1;P1;durP2;ratioP2;P2;SDS_P1;SDS_P2;PMS_P1;PMS_P2;Temp;Humidity;BMP_temperature;BMP_pressure;BME280_temperature;BME280_humidity;BME280_pressure;Samples;Min_cycle;Max_cycle;Signal;HPM_P1;HPM_P2
2023/08/31 00:00:47;;;;;;;1.50;0.60;;;;;;;-142.57;70.38;115900.28;4967876;28;20027;-83
2023/08/31 00:03:13;;;;;;;1.48;0.70;;;;;;;-142.57;70.57;115900.28;4969968;28;20392;-81
2023/08/31 00:05:41;;;;;;;2.05;0.80;;;;;;;-142.57;70.13;115900.28;4978348;28;20388;-82
2023/08/31 00:08:07;;;;;;;1.45;0.70;;;;;;;-142.57;69.80;115900.28;4979177;28;20039;-83
2023/08/31 00:10:34;;;;;;;2.33;0.85;;;;;;;-142.57;68.76;115900.28;4978494;28;20421;-80
2023/08/31 00:13:03;;;;;;;4.32;0.77;;;;;;;-142.57;69.01;115900.28;4980173;28;20065;-82
2023/08/31 00:15:32;;;;;;;0.57;0.43;;;;;;;-142.57;69.39;115900.28;4981765;28;20043;-81
2023/08/31 00:17:58;;;;;;;3.83;0.85;;;;;;;-142.57;68.96;115900.28;4981266;28;20041;-82
2023/08/31 00:20:25;;;;;;;2.17;0.73;;;;;;;-142.57;69.33;115900.28;4978824;28;20027;-81
2023/08/31 00:22:51;;;;;;;2.88;0.70;;;;;;;-142.57;69.91;115900.28;4977587;28;20042;-81
2023/08/31 00:25:17;;;;;;;2.00;0.73;;;;;;;-142.57;71.01;115900.28;4978796;28;20047;-84
2023/08/31 00:27:42;;;;;;;3.80;0.70;;;;;;;-142.57;70.42;115900.28;4979199;28;20082;-83
2023/08/31 00:30:11;;;;;;;3.70;0.52;;;;;;;-142.57;72.46;115900.28;4979133;28;20061;-82
2023/08/31 00:32:36;;;;;;;2.38;0.77;;;;;;;-142.57;73.82;115900.28;4977345;28;20031;-83
2023/08/31 00:35:03;;;;;;;3.42;0.70;;;;;;;-142.57;75.00;115900.28;4977880;28;20042;-84
2023/08/31 00:37:29;;;;;;;7.60;0.75;;;;;;;-142.57;76.46;115900.28;4978103;28;20054;-82
2023/08/31 00:39:55;;;;;;;3.30;0.70;;;;;;;-142.57;77.08;115900.28;4977946;28;20035;-86
2023/08/31 00:42:21;;;;;;;3.47;0.90;;;;;;;-142.57;77.62;115900.28;4978942;28;20066;-82
2023/08/31 00:44:47;;;;;;;3.13;0.80;;;;;;;-142.57;77.33;115900.28;4978359;28;20038;-82
2023/08/31 00:47:16;;;;;;;2.83;1.15;;;;;;;-142.57;77.72;115900.28;4979364;28;20031;-83
2023/08/31 00:49:42;;;;;;;2.95;0.98;;;;;;;-142.57;77.88;115900.28;4979536;28;20105;-82
2023/08/31 00:52:08;;;;;;;3.55;1.10;;;;;;;-142.57;78.36;115900.28;4979615;28;20039;-83
2023/08/31 00:54:35;;;;;;;2.20;0.90;;;;;;;-142.57;77.78;115900.28;4978450;28;20067;-83
2023/08/31 00:57:01;;;;;;;4.00;1.45;;;;;;;-142.57;77.44;115900.28;4977078;28;20030;-83
2023/08/31 00:59:27;;;;;;;2.58;1.00;;;;;;;-142.57;77.11;115900.28;4977339;28;20383;-84
2023/08/31 01:02:01;;;;;;;3.60;1.30;;;;;;;-142.57;76.78;115900.28;4978760;28;20034;-82
2023/08/31 01:04:57;;;;;;;1.98;0.95;;;;;;;-142.57;76.87;115900.28;4977775;28;20042;-81
2023/08/31 01:07:37;;;;;;;1.90;1.05;;;;;;;-142.57;75.85;115900.28;4976338;28;20050;-82
2023/08/31 01:10:18;;;;;;;5.15;1.20;;;;;;;-142.57;74.90;115900.28;4976068;28;20058;-82
2023/08/31 01:12:50;;;;;;;1.77;1.00;;;;;;;-142.57;75.27;115900.28;4977271;28;20030;-82
2023/08/31 01:15:17;;;;;;;2.20;1.20;;;;;;;-142.57;75.60;115900.28;4977294;28;20042;-82
2023/08/31 01:17:49;;;;;;;4.05;1.10;;;;;;;-142.57;75.39;115900.28;4977861;28;20034;-81
2023/08/31 01:20:24;;;;;;;12.07;1.25;;;;;;;-142.57;75.99;115900.28;4978695;28;20106;-83
2023/08/31 01:23:03;;;;;;;5.28;1.30;;;;;;;-142.57;75.90;115900.28;4976232;28;20484;-82
2023/08/31 01:25:32;;;;;;;1.98;0.90;;;;;;;-142.57;76.46;115900.28;4976237;28;20041;-82
2023/08/31 01:27:59;;;;;;;2.83;0.88;;;;;;;-142.57;76.78;115900.28;4975944;28;20027;-83
2023/08/31 01:30:25;;;;;;;2.38;1.10;;;;;;;-142.57;76.50;115900.28;4977857;28;20396;-81
2023/08/31 01:32:51;;;;;;;2.90;1.10;;;;;;;-142.57;76.90;115900.28;4977890;28;20037;-82
2023/08/31 01:35:18;;;;;;;4.03;0.90;;;;;;;-142.57;76.63;115900.28;4978369;28;20039;-84
2023/08/31 01:37:51;;;;;;;3.42;0.88;;;;;;;-142.57;76.32;115900.28;4977933;28;20035;-83
2023/08/31 01:40:23;;;;;;;3.78;1.13;;;;;;;-142.57;75.84;115900.28;4984155;28;20043;-83
2023/08/31 01:42:50;;;;;;;6.20;1.20;;;;;;;-142.57;74.32;115900.28;4986224;28;20045;-82
2023/08/31 01:45:20;;;;;;;2.35;0.82;;;;;;;-142.57;74.35;115900.28;4980679;28;20092;-82
2023/08/31 01:47:46;;;;;;;3.47;0.82;;;;;;;-142.57;74.45;115900.28;4977979;28;20058;-83
2023/08/31 01:50:12;;;;;;;2.42;0.90;;;;;;;-142.57;75.36;115900.28;4978963;28;20027;-84
2023/08/31 01:52:38;;;;;;;2.15;1.05;;;;;;;-142.57;77.02;115900.28;4976420;28;20060;-83
2023/08/31 01:55:07;;;;;;;2.85;1.00;;;;;;;-142.57;77.33;115900.28;4992943;28;20126;-82
2023/08/31 01:57:33;;;;;;;2.28;0.90;;;;;;;-142.57;76.61;115900.28;4975065;28;20039;-83
2023/08/31 02:00:07;;;;;;;2.40;0.90;;;;;;;-142.57;77.03;115900.28;4992273;28;20476;-83
2023/08/31 02:02:40;;;;;;;2.80;0.98;;;;;;;-142.57;81.44;115900.28;4976660;28;20050;-83
2023/08/31 02:05:06;;;;;;;2.45;1.10;;;;;;;-142.57;79.50;115900.28;4976376;28;20510;-83
2023/08/31 02:07:32;;;;;;;8.88;1.20;;;;;;;-142.57;79.02;115900.28;4975649;28;20034;-82
2023/08/31 02:09:57;;;;;;;6.60;1.48;;;;;;;-142.57;82.45;115900.28;4974953;28;20038;-84
2023/08/31 02:12:26;;;;;;;2.08;1.30;;;;;;;-142.57;85.18;115900.28;4974701;28;20033;-85
2023/08/31 02:14:51;;;;;;;3.65;1.17;;;;;;;-142.57;84.62;115900.28;4975108;28;20034;-81
2023/08/31 02:17:20;;;;;;;4.57;1.30;;;;;;;-142.57;85.02;115900.28;4974890;28;20376;-82
2023/08/31 02:19:46;;;;;;;5.35;1.73;;;;;;;-142.57;87.08;115900.28;4976365;28;20066;-81
2023/08/31 02:22:12;;;;;;;2.10;1.17;;;;;;;-142.57;86.58;115900.28;4975187;28;20122;-82
2023/08/31 02:24:37;;;;;;;1.83;1.10;;;;;;;-142.57;85.34;115900.28;4976355;28;20127;-82
2023/08/31 02:27:03;;;;;;;1.65;0.90;;;;;;;-142.57;84.34;115900.28;4977029;28;20117;-82
2023/08/31 02:29:28;;;;;;;7.60;1.30;;;;;;;-142.57;84.12;115900.28;4979579;28;20476;-81
2023/08/31 02:31:57;;;;;;;2.90;0.98;;;;;;;-142.57;83.44;115900.28;4980837;28;20046;-82
2023/08/31 02:34:22;;;;;;;2.75;1.10;;;;;;;-142.57;83.13;115900.28;4978759;28;20492;-84
2023/08/31 02:36:48;;;;;;;2.10;1.10;;;;;;;-142.57;85.53;115900.28;4974669;28;20113;-83
2023/08/31 02:39:14;;;;;;;3.33;1.13;;;;;;;-142.57;91.67;115900.28;4975190;28;20043;-82
2023/08/31 02:41:39;;;;;;;4.05;1.08;;;;;;;-142.57;93.88;115900.28;4976212;28;20034;-83
2023/08/31 02:44:05;;;;;;;3.42;1.20;;;;;;;-142.57;92.35;115900.28;4975210;28;20070;-83
2023/08/31 02:46:31;;;;;;;2.25;1.00;;;;;;;-142.57;96.31;115900.28;4974725;28;20510;-83
2023/08/31 02:48:56;;;;;;;3.53;1.00;;;;;;;-142.57;100.00;115900.28;4974307;28;20110;-83
2023/08/31 02:51:22;;;;;;;4.28;1.27;;;;;;;-142.57;100.00;115900.28;4975651;28;20041;-84
2023/08/31 02:53:48;;;;;;;3.33;1.33;;;;;;;-142.57;100.00;115900.28;4973987;28;20169;-83
2023/08/31 02:56:14;;;;;;;2.20;1.00;;;;;;;-142.57;100.00;115900.28;4975733;28;20496;-84
2023/08/31 02:58:40;;;;;;;1.90;1.00;;;;;;;-142.57;100.00;115900.28;4974425;28;20034;-84
2023/08/31 03:01:16;;;;;;;2.10;0.98;;;;;;;-142.57;99.94;115900.28;4969176;28;20452;-82
2023/08/31 03:03:49;;;;;;;3.03;0.85;;;;;;;-142.57;99.27;115900.28;4971303;28;20493;-82
2023/08/31 03:06:15;;;;;;;1.83;0.80;;;;;;;-142.57;98.50;115900.28;4955959;28;20515;-83
2023/08/31 03:08:41;;;;;;;6.70;0.95;;;;;;;-142.57;97.47;115900.28;4955671;28;20043;-84
2023/08/31 03:11:07;;;;;;;4.32;0.98;;;;;;;-142.57;97.96;115900.28;4956876;29;20031;-83
2023/08/31 03:13:33;;;;;;;3.10;1.00;;;;;;;-142.57;100.00;115900.28;4954976;28;20477;-85
2023/08/31 03:16:00;;;;;;;2.13;1.08;;;;;;;-142.57;100.00;115900.28;4955474;28;20247;-83
2023/08/31 03:18:27;;;;;;;2.20;0.90;;;;;;;-142.57;99.45;115900.28;4955719;28;20035;-81
2023/08/31 03:20:54;;;;;;;5.18;1.10;;;;;;;-142.57;98.46;115900.28;4954137;29;20035;-83
2023/08/31 03:23:20;;;;;;;4.43;0.80;;;;;;;-142.57;100.00;115900.28;4954074;29;20034;-85
2023/08/31 03:25:45;;;;;;;3.15;1.00;;;;;;;-142.57;100.00;115900.28;4954738;29;20039;-83
2023/08/31 03:28:11;;;;;;;3.05;0.82;;;;;;;-142.57;100.00;115900.28;4955018;28;20479;-82
2023/08/31 03:30:37;;;;;;;1.90;0.98;;;;;;;-142.57;100.00;115900.28;4958164;29;20175;-83
2023/08/31 03:33:03;;;;;;;8.00;1.20;;;;;;;-142.57;100.00;115900.28;4958141;29;20109;-81
2023/08/31 03:35:28;;;;;;;4.10;1.65;;;;;;;-142.57;100.00;115900.28;4959439;29;20035;-83
2023/08/31 03:37:57;;;;;;;1.75;0.90;;;;;;;-142.57;100.00;115900.28;4958415;28;20039;-82
2023/08/31 03:40:23;;;;;;;1.45;0.88;;;;;;;-142.57;100.00;115900.28;4958920;28;20500;-84
2023/08/31 03:42:50;;;;;;;3.92;1.10;;;;;;;-142.57;100.00;115900.28;4958667;29;20046;-81
2023/08/31 03:45:16;;;;;;;1.33;0.68;;;;;;;-142.57;100.00;115900.28;4958945;28;20119;-82
2023/08/31 03:47:41;;;;;;;5.63;0.90;;;;;;;-142.57;100.00;115900.28;4959033;28;20131;-84
2023/08/31 03:50:08;;;;;;;4.75;1.20;;;;;;;-142.57;100.00;115900.28;4959278;28;20078;-85
2023/08/31 03:52:34;;;;;;;4.10;0.90;;;;;;;-142.57;100.00;115900.28;4957903;29;20039;-82
2023/08/31 03:54:59;;;;;;;5.40;1.05;;;;;;;-142.57;100.00;115900.28;4957874;29;20046;-85
2023/08/31 03:57:25;;;;;;;4.13;1.00;;;;;;;-142.57;100.00;115900.28;4958101;29;20110;-80
2023/08/31 03:59:55;;;;;;;6.15;1.02;;;;;;;-142.57;100.00;115900.28;4957471;29;20102;-83
2023/08/31 04:02:21;;;;;;;4.50;0.93;;;;;;;-142.57;100.00;115900.28;4960235;28;20066;-82
2023/08/31 04:04:49;;;;;;;4.00;0.90;;;;;;;-142.57;100.00;115900.28;4957332;29;20181;-82
2023/08/31 04:07:15;;;;;;;7.60;1.02;;;;;;;-142.57;100.00;115900.28;4957020;29;20039;-83
2023/08/31 04:09:40;;;;;;;3.88;1.10;;;;;;;-142.57;100.00;115900.28;4958750;29;20031;-83
2023/08/31 04:12:06;;;;;;;2.95;0.93;;;;;;;-142.57;100.00;115900.28;4956860;29;20023;-81
2023/08/31 04:14:32;;;;;;;4.60;1.10;;;;;;;-142.57;100.00;115900.28;4957947;28;20150;-81
2023/08/31 04:16:57;;;;;;;4.50;1.10;;;;;;;-142.57;100.00;115900.28;4969752;28;20089;-81
2023/08/31 04:19:25;;;;;;;4.00;1.00;;;;;;;-142.57;100.00;115900.28;4976081;28;20512;-81
2023/08/31 04:21:52;;;;;;;2.17;1.10;;;;;;;-142.57;100.00;115900.28;4977862;28;20122;-81
2023/08/31 04:24:18;;;;;;;4.90;1.63;;;;;;;-142.57;100.00;115900.28;4977781;28;20070;-81
2023/08/31 04:26:44;;;;;;;5.18;1.00;;;;;;;-142.57;100.00;115900.28;4979116;28;20187;-83
2023/08/31 04:29:10;;;;;;;2.67;1.08;;;;;;;-142.57;100.00;115900.28;4978943;28;20035;-84
2023/08/31 04:31:35;;;;;;;1.85;0.80;;;;;;;-142.57;100.00;115900.28;4977306;28;20066;-82
2023/08/31 04:34:01;;;;;;;3.92;1.45;;;;;;;-142.57;100.00;115900.28;4977969;28;20038;-82
2023/08/31 04:36:30;;;;;;;3.83;1.38;;;;;;;-142.57;100.00;115900.28;4978255;28;20114;-82
2023/08/31 04:38:55;;;;;;;5.10;1.30;;;;;;;-142.57;100.00;115900.28;4978504;28;20047;-83
2023/08/31 04:41:21;;;;;;;7.45;1.58;;;;;;;-142.57;100.00;115900.28;4980227;28;20046;-86
2023/08/31 04:43:47;;;;;;;8.25;1.17;;;;;;;-142.57;100.00;115900.28;4980293;28;20544;-83
2023/08/31 04:46:13;;;;;;;3.00;1.20;;;;;;;-142.57;100.00;115900.28;4977566;28;20031;-83
2023/08/31 04:48:39;;;;;;;5.72;1.60;;;;;;;-142.57;100.00;115900.28;4976490;28;20405;-84
2023/08/31 04:51:05;;;;;;;5.30;1.33;;;;;;;-142.57;100.00;115900.28;4977330;28;20035;-82
2023/08/31 04:53:31;;;;;;;3.30;1.30;;;;;;;-142.57;100.00;115900.28;4976101;28;20045;-84
2023/08/31 04:55:56;;;;;;;4.32;1.30;;;;;;;-142.57;100.00;115900.28;4977361;28;20039;-86
2023/08/31 04:58:22;;;;;;;3.88;1.25;;;;;;;-142.57;100.00;115900.28;4977326;28;20414;-83
2023/08/31 05:00:47;;;;;;;3.90;1.10;;;;;;;-142.57;100.00;115900.28;4977400;28;20066;-86
2023/08/31 05:03:14;;;;;;;7.85;1.27;;;;;;;-142.57;100.00;115900.28;4977349;28;20038;-82
2023/08/31 05:05:43;;;;;;;5.28;1.50;;;;;;;-142.57;100.00;115900.28;4977160;28;20102;-83
2023/08/31 05:08:09;;;;;;;7.03;1.33;;;;;;;-142.57;100.00;115900.28;4978362;28;20045;-85
2023/08/31 05:10:35;;;;;;;5.18;1.00;;;;;;;-142.57;100.00;115900.28;4978392;28;20027;-86
2023/08/31 05:13:00;;;;;;;10.02;1.83;;;;;;;-142.57;100.00;115900.28;4976832;28;20015;-83
2023/08/31 05:15:30;;;;;;;6.47;1.40;;;;;;;-142.57;100.00;115900.28;4976510;28;20403;-84
2023/08/31 05:17:56;;;;;;;4.18;1.27;;;;;;;-142.57;100.00;115900.28;4978342;28;20062;-82
2023/08/31 05:20:23;;;;;;;3.25;1.10;;;;;;;-142.57;100.00;115900.28;4979288;28;20480;-87
2023/08/31 05:22:48;;;;;;;3.70;1.17;;;;;;;-142.57;100.00;115900.28;4980035;28;20053;-83
2023/08/31 05:25:17;;;;;;;8.20;1.60;;;;;;;-142.57;100.00;115900.28;4979346;28;20088;-86
2023/08/31 05:27:43;;;;;;;5.00;1.40;;;;;;;-142.57;100.00;115900.28;4979119;28;20472;-85
2023/08/31 05:30:09;;;;;;;6.78;1.55;;;;;;;-142.57;100.00;115900.28;4978668;28;20102;-86
2023/08/31 05:32:34;;;;;;;3.83;1.73;;;;;;;-142.57;100.00;115900.28;4976863;28;20088;-86
2023/08/31 05:35:00;;;;;;;6.47;1.48;;;;;;;-142.57;100.00;115900.28;4977934;28;20082;-86
2023/08/31 05:37:26;;;;;;;4.43;1.17;;;;;;;-142.57;100.00;115900.28;4978512;28;20034;-86
2023/08/31 05:39:51;;;;;;;3.78;1.40;;;;;;;-142.57;100.00;115900.28;4977501;28;20426;-85
2023/08/31 05:42:17;;;;;;;6.25;1.23;;;;;;;-142.57;100.00;115900.28;4980317;28;20129;-86
2023/08/31 05:44:43;;;;;;;3.97;1.13;;;;;;;-142.57;100.00;115900.28;4977919;28;20042;-85
2023/08/31 05:47:09;;;;;;;5.38;1.60;;;;;;;-142.57;100.00;115900.28;4978981;28;20047;-83
2023/08/31 05:49:34;;;;;;;7.97;1.83;;;;;;;-142.57;100.00;115900.28;4977885;28;20197;-85
2023/08/31 05:52:00;;;;;;;11.68;1.67;;;;;;;-142.57;100.00;115900.28;4976065;28;20039;-85
2023/08/31 05:54:27;;;;;;;6.25;1.45;;;;;;;-142.57;97.09;115900.28;4978387;28;20118;-85
2023/08/31 05:56:52;;;;;;;11.85;2.20;;;;;;;-142.57;97.33;115900.28;4979177;28;20460;-86
2023/08/31 05:59:18;;;;;;;20.60;2.25;;;;;;;-142.57;95.66;115900.28;4979495;28;20033;-83
2023/08/31 06:01:44;;;;;;;12.48;3.38;;;;;;;-142.57;97.21;115900.28;4979166;28;20071;-86
2023/08/31 06:04:09;;;;;;;19.30;2.88;;;;;;;-142.57;97.69;115900.28;4978553;28;20085;-83
2023/08/31 06:06:38;;;;;;;15.23;2.47;;;;;;;-142.57;99.13;115900.28;4979085;28;20039;-87
2023/08/31 06:09:04;;;;;;;20.52;2.30;;;;;;;-142.57;100.00;115900.28;4977612;28;20031;-85
2023/08/31 06:11:33;;;;;;;11.55;1.70;;;;;;;-142.57;100.00;115900.28;4978249;28;20030;-82
2023/08/31 06:14:01;;;;;;;9.52;1.90;;;;;;;-142.57;100.00;115900.28;4977878;28;20039;-85
2023/08/31 06:16:27;;;;;;;7.93;1.80;;;;;;;-142.57;99.37;115900.28;4979637;28;20045;-90
2023/08/31 06:18:52;;;;;;;6.97;1.48;;;;;;;-142.57;98.38;115900.28;4981524;28;20035;-88
2023/08/31 06:21:24;;;;;;;5.32;1.73;;;;;;;-142.57;95.97;115900.28;4982254;28;20491;-82
2023/08/31 06:23:49;;;;;;;4.95;1.60;;;;;;;-142.57;96.09;115900.28;4992158;28;20089;-87
2023/08/31 06:26:15;;;;;;;7.93;1.35;;;;;;;-142.57;95.91;115900.28;4979566;28;20031;-85
2023/08/31 06:28:40;;;;;;;4.45;1.40;;;;;;;-142.57;94.35;115900.28;4979648;28;20042;-87
2023/08/31 06:31:07;;;;;;;7.68;1.50;;;;;;;-142.57;92.83;115900.28;4978336;28;20555;-87
2023/08/31 06:33:35;;;;;;;3.55;1.80;;;;;;;-142.57;91.63;115900.28;4978607;28;20031;-86
2023/08/31 06:36:01;;;;;;;5.72;1.58;;;;;;;-142.57;90.69;115900.28;4985024;28;20543;-84
2023/08/31 06:38:26;;;;;;;4.93;1.58;;;;;;;-142.57;88.37;115900.28;4987878;28;20030;-86
2023/08/31 06:40:58;;;;;;;7.18;1.63;;;;;;;-142.57;87.41;115900.28;4987092;28;20088;-89
2023/08/31 06:43:23;;;;;;;4.87;1.30;;;;;;;-142.57;85.40;115900.28;4985391;28;20054;-86
2023/08/31 06:45:49;;;;;;;5.68;1.30;;;;;;;-142.57;84.58;115900.28;4981444;28;20057;-87
2023/08/31 06:48:14;;;;;;;3.10;1.30;;;;;;;-142.57;83.99;115900.28;4996825;28;20492;-88
2023/08/31 06:50:40;;;;;;;3.80;1.30;;;;;;;-142.57;82.41;115900.28;4988769;28;20030;-86
2023/08/31 06:53:05;;;;;;;3.30;1.40;;;;;;;-142.57;80.65;115900.28;4986642;28;20480;-85
2023/08/31 06:55:31;;;;;;;6.47;1.75;;;;;;;-142.57;77.99;115900.28;4985951;28;20077;-85
2023/08/31 06:57:57;;;;;;;5.13;1.40;;;;;;;-142.57;77.41;115900.28;4985666;28;20035;-87
2023/08/31 07:00:22;;;;;;;6.55;1.98;;;;;;;-142.57;78.16;115900.28;4968871;28;20041;-83
2023/08/31 07:02:48;;;;;;;3.72;1.95;;;;;;;-142.57;77.17;115900.28;4983762;28;20104;-86
2023/08/31 07:05:14;;;;;;;4.45;1.80;;;;;;;-142.57;78.17;115900.28;4994529;28;20479;-87
2023/08/31 07:07:39;;;;;;;6.53;2.35;;;;;;;-142.57;77.08;115900.28;4987651;28;20109;-86
2023/08/31 07:10:05;;;;;;;8.68;2.45;;;;;;;-142.57;75.08;115900.28;4990718;28;20037;-88
2023/08/31 07:12:31;;;;;;;5.00;2.30;;;;;;;-142.57;74.72;115900.28;4987397;28;20045;-83
2023/08/31 07:14:57;;;;;;;5.75;2.33;;;;;;;-142.57;73.08;115900.28;4987925;28;20361;-85
2023/08/31 07:17:22;;;;;;;9.88;3.17;;;;;;;-142.57;71.21;115900.28;4988986;28;20051;-84
2023/08/31 07:19:47;;;;;;;4.97;2.95;;;;;;;-142.57;68.37;115900.28;4987960;28;20034;-84
2023/08/31 07:22:13;;;;;;;6.68;2.90;;;;;;;-142.57;69.45;115900.28;4988743;28;20114;-86
2023/08/31 07:24:38;;;;;;;7.35;2.53;;;;;;;-142.57;65.00;115900.28;4987054;28;20059;-85
2023/08/31 07:27:04;;;;;;;8.05;2.80;;;;;;;-142.57;63.88;115900.28;4987627;28;20030;-85
2023/08/31 07:29:30;;;;;;;8.75;2.92;;;;;;;-142.57;64.51;115900.28;4988035;28;20049;-84
2023/08/31 07:31:57;;;;;;;5.93;2.90;;;;;;;-142.57;67.54;115900.28;4984017;28;20491;-85
2023/08/31 07:34:22;;;;;;;4.60;2.33;;;;;;;-142.57;66.54;115900.28;4989272;28;20030;-87
2023/08/31 07:36:48;;;;;;;8.60;2.47;;;;;;;-142.57;62.74;115900.28;4988755;28;20396;-86
2023/08/31 07:39:19;;;;;;;3.58;2.30;;;;;;;-142.57;61.40;115900.28;4989591;28;20022;-84
2023/08/31 07:41:45;;;;;;;6.37;2.40;;;;;;;-142.57;60.82;115900.28;4991643;28;20030;-84
2023/08/31 07:44:11;;;;;;;8.80;3.10;;;;;;;-142.57;57.72;115900.28;4995268;28;20095;-85
2023/08/31 07:46:36;;;;;;;7.53;2.38;;;;;;;-142.57;59.17;115900.28;4981530;28;20174;-86
2023/08/31 07:49:03;;;;;;;6.45;2.72;;;;;;;-142.57;58.72;115900.28;4981225;28;20392;-85
2023/08/31 07:51:28;;;;;;;7.50;2.88;;;;;;;-142.57;57.51;115900.28;4983007;28;20050;-87
2023/08/31 07:53:54;;;;;;;5.30;2.60;;;;;;;-142.57;58.33;115900.28;4983605;28;20030;-88
2023/08/31 07:56:19;;;;;;;4.15;1.98;;;;;;;-142.57;56.61;115900.28;4990122;28;20094;-88
2023/08/31 07:58:45;;;;;;;11.65;3.03;;;;;;;-142.57;57.16;115900.28;4986121;28;20353;-87
2023/08/31 08:01:10;;;;;;;6.20;2.63;;;;;;;-142.57;53.59;115900.28;4986036;28;20121;-88
2023/08/31 08:03:36;;;;;;;4.93;2.65;;;;;;;-142.57;53.20;115900.28;4988552;28;20030;-87
2023/08/31 08:06:01;;;;;;;6.97;2.10;;;;;;;-142.57;51.56;115900.28;4991292;28;20042;-90
2023/08/31 08:08:27;;;;;;;7.05;1.90;;;;;;;-142.57;49.96;115900.28;4990961;28;20034;-86
2023/08/31 08:10:53;;;;;;;4.38;1.80;;;;;;;-142.57;49.75;115900.28;4990807;28;20065;-88
2023/08/31 08:13:18;;;;;;;7.05;1.60;;;;;;;-142.57;48.80;115900.28;4992472;28;20041;-87
2023/08/31 08:15:45;;;;;;;5.38;1.83;;;;;;;-142.57;47.77;115900.28;4993355;28;20038;-88
2023/08/31 08:18:11;;;;;;;7.38;2.03;;;;;;;-142.57;46.62;115900.28;4991330;28;20019;-86
2023/08/31 08:20:36;;;;;;;7.35;1.73;;;;;;;-142.57;45.73;115900.28;4991430;28;20034;-85
2023/08/31 08:23:02;;;;;;;7.15;2.30;;;;;;;-142.57;46.53;115900.28;4989106;28;20344;-87
2023/08/31 08:25:27;;;;;;;6.78;2.38;;;;;;;-142.57;47.30;115900.28;4990274;28;20035;-86
2023/08/31 08:27:53;;;;;;;8.05;2.47;;;;;;;-142.57;46.58;115900.28;4990745;28;20038;-88
2023/08/31 08:30:19;;;;;;;6.43;2.83;;;;;;;-142.57;46.62;115900.28;4987480;28;20463;-89
2023/08/31 08:32:44;;;;;;;9.50;3.00;;;;;;;-142.57;45.85;115900.28;4991438;28;20049;-88
2023/08/31 08:35:10;;;;;;;13.63;3.70;;;;;;;-142.57;45.68;115900.28;4990333;28;20042;-89
2023/08/31 08:37:36;;;;;;;7.38;3.60;;;;;;;-142.57;44.65;115900.28;4996392;28;20026;-87
2023/08/31 08:40:03;;;;;;;8.65;4.50;;;;;;;-142.57;44.72;115900.28;4994229;28;20124;-88
2023/08/31 08:42:31;;;;;;;10.32;4.35;;;;;;;-142.57;43.78;115900.28;4999447;28;20035;-85
2023/08/31 08:44:57;;;;;;;6.28;3.20;;;;;;;-142.57;42.91;115900.28;4995862;28;20455;-87
2023/08/31 08:47:25;;;;;;;8.77;4.10;;;;;;;-142.57;42.47;115900.28;4991884;28;20058;-85
2023/08/31 08:49:53;;;;;;;7.55;3.50;;;;;;;-142.57;40.48;115900.28;4988948;28;20059;-85
2023/08/31 08:52:18;;;;;;;7.55;2.88;;;;;;;-142.57;39.65;115900.28;4996314;28;20050;-87
2023/08/31 08:54:45;;;;;;;6.93;3.35;;;;;;;-142.57;38.79;115900.28;4987651;28;20033;-87
2023/08/31 08:57:10;;;;;;;6.32;3.53;;;;;;;-142.57;40.56;115900.28;4983122;28;20035;-88
2023/08/31 08:59:36;;;;;;;10.20;3.25;;;;;;;-142.57;41.99;115900.28;5006585;28;20039;-85
2023/08/31 09:02:07;;;;;;;5.57;2.65;;;;;;;-142.57;40.73;115900.28;4991336;28;20408;-85
2023/08/31 09:04:32;;;;;;;10.57;2.85;;;;;;;-142.57;41.53;115900.28;4992947;28;20035;-86
2023/08/31 09:06:58;;;;;;;6.63;2.83;;;;;;;-142.57;41.78;115900.28;4992309;28;20041;-87
2023/08/31 09:09:23;;;;;;;6.68;3.00;;;;;;;-142.57;41.07;115900.28;4986894;28;20047;-87
2023/08/31 09:11:49;;;;;;;8.77;2.88;;;;;;;-142.57;40.98;115900.28;4994285;28;20054;-87
2023/08/31 09:14:17;;;;;;;8.55;2.90;;;;;;;-142.57;39.33;115900.28;4984963;28;20031;-87
2023/08/31 09:16:50;;;;;;;5.75;2.20;;;;;;;-142.57;39.75;115900.28;4995485;28;20034;-86
2023/08/31 09:19:24;;;;;;;6.97;2.50;;;;;;;-142.57;39.58;115900.28;4992167;28;20030;-85
2023/08/31 09:21:52;;;;;;;6.22;2.00;;;;;;;-142.57;39.20;115900.28;4992943;28;20027;-84
2023/08/31 09:24:18;;;;;;;5.13;2.80;;;;;;;-142.57;39.20;115900.28;4969245;28;20027;-86
2023/08/31 09:26:58;;;;;;;7.85;3.13;;;;;;;-142.57;39.54;115900.28;4994698;28;20062;-85
2023/08/31 09:29:24;;;;;;;6.75;2.45;;;;;;;-142.57;38.60;115900.28;4978741;28;20034;-85
2023/08/31 09:31:50;;;;;;;4.88;2.40;;;;;;;-142.57;38.26;115900.28;4995888;28;20031;-88
2023/08/31 09:34:18;;;;;;;6.60;2.05;;;;;;;-142.57;37.55;115900.28;4991942;28;20035;-89
2023/08/31 09:36:44;;;;;;;5.07;2.05;;;;;;;-142.57;36.70;115900.28;4980421;28;20461;-87
2023/08/31 09:39:11;;;;;;;7.43;2.22;;;;;;;-142.57;35.73;115900.28;4997305;28;20508;-89
2023/08/31 09:41:55;;;;;;;5.25;1.98;;;;;;;-142.57;36.45;115900.28;4997367;28;20030;-87
2023/08/31 09:44:21;;;;;;;5.68;1.80;;;;;;;-142.57;38.19;115900.28;4996777;28;20041;-88
2023/08/31 09:46:48;;;;;;;5.55;1.90;;;;;;;-142.57;37.64;115900.28;5001468;28;20079;-87
2023/08/31 09:49:17;;;;;;;6.68;1.88;;;;;;;-142.57;38.21;115900.28;5000322;28;20045;-88
2023/08/31 09:51:49;;;;;;;8.18;2.30;;;;;;;-142.57;39.41;115900.28;4991865;28;20015;-88
2023/08/31 09:54:21;;;;;;;6.18;1.80;;;;;;;-142.57;39.40;115900.28;4990588;28;20038;-90
2023/08/31 09:56:47;;;;;;;9.43;2.00;;;;;;;-142.57;39.39;115900.28;4990290;28;20042;-86
2023/08/31 09:59:15;;;;;;;5.18;2.17;;;;;;;-142.57;39.12;115900.28;4992110;28;20019;-86
2023/08/31 10:01:42;;;;;;;7.03;2.13;;;;;;;-142.57;38.08;115900.28;4991210;28;20057;-86
2023/08/31 10:04:12;;;;;;;9.93;2.05;;;;;;;-142.57;38.75;115900.28;4983583;28;20034;-85
2023/08/31 10:06:42;;;;;;;7.13;1.98;;;;;;;-142.57;37.92;115900.28;4987345;28;20062;-86
2023/08/31 10:09:11;;;;;;;6.60;2.50;;;;;;;-142.57;37.98;115900.28;4992664;28;20034;-90
2023/08/31 10:11:42;;;;;;;7.95;2.15;;;;;;;-142.57;37.88;115900.28;5002188;28;20042;-89
2023/08/31 10:14:10;;;;;;;3.83;2.33;;;;;;;-142.57;37.44;115900.28;5004703;28;20043;-86
2023/08/31 10:16:39;;;;;;;9.77;2.05;;;;;;;-142.57;36.32;115900.28;5006792;28;20038;-88
2023/08/31 10:19:05;;;;;;;5.93;2.03;;;;;;;-142.57;35.84;115900.28;4998997;28;20038;-84
2023/08/31 10:21:32;;;;;;;8.30;1.65;;;;;;;-142.57;34.94;115900.28;4995032;28;20034;-91
2023/08/31 10:24:06;;;;;;;7.40;1.77;;;;;;;-142.57;34.56;115900.28;4999664;28;20034;-90
2023/08/31 10:26:33;;;;;;;7.30;2.42;;;;;;;-142.57;35.24;115900.28;4992307;28;20037;-90
2023/08/31 10:28:59;;;;;;;4.70;1.80;;;;;;;-142.57;34.94;115900.28;5008352;28;20038;-91
2023/08/31 10:31:33;;;;;;;2.45;1.30;;;;;;;-142.57;34.17;115900.28;5014426;23;20050;-83
2023/08/31 10:34:04;;;;;;;8.60;1.70;;;;;;;-142.57;34.28;115900.28;5003113;28;20033;-87
2023/08/31 10:36:41;;;;;;;3.80;1.55;;;;;;;-142.57;34.25;115900.28;5019941;28;20298;-84
2023/08/31 10:39:11;;;;;;;4.68;1.90;;;;;;;-142.57;33.59;115900.28;5020209;28;20028;-84
2023/08/31 10:41:37;;;;;;;3.20;1.42;;;;;;;-142.57;32.82;115900.28;5003136;28;20399;-85
2023/08/31 10:44:17;;;;;;;5.25;1.52;;;;;;;-142.57;32.97;115900.28;5017843;28;20032;-83
2023/08/31 10:46:44;;;;;;;;;;;;;;;-142.57;32.37;115900.28;5003959;28;20406;-85
2023/08/31 10:49:10;;;;;;;6.90;1.77;;;;;;;-142.57;31.92;115900.28;5004725;28;20016;-88
2023/08/31 10:51:37;;;;;;;3.13;1.30;;;;;;;-142.57;31.31;115900.28;5017148;28;20073;-86
2023/08/31 10:54:31;;;;;;;13.68;1.75;;;;;;;-142.57;30.89;115900.28;5018655;28;20033;-85
2023/08/31 10:57:06;;;;;;;2.92;1.20;;;;;;;-142.57;30.95;115900.28;5003408;28;20414;-85
2023/08/31 10:59:52;;;;;;;5.28;1.50;;;;;;;-142.57;30.76;115900.28;5015028;28;20444;-85
2023/08/31 11:02:34;;;;;;;3.55;2.00;;;;;;;-142.57;31.43;115900.28;5009068;28;20037;-87
2023/08/31 11:05:10;;;;;;;6.13;2.42;;;;;;;-142.57;31.91;115900.28;5008897;28;20406;-83
2023/08/31 11:07:41;;;;;;;4.60;1.70;;;;;;;-142.57;32.15;115900.28;5015118;28;20061;-83